sensor_id;sensor_type;location;lat;lon;timestamp;P1;durP1;ratioP1;P2;durP2;ratioP2
29416;SDS011;28421;51.030;4.006;2023-02-01T00:02:05;30.38;;;8.57;;
29416;SDS011;28421;51.030;4.006;2023-02-01T00:04:30;30.30;;;8.88;;
29416;SDS011;28421;51.030;4.006;2023-02-01T00:06:56;29.77;;;8.10;;
29416;SDS011;28421;51.030;4.006;2023-02-01T00:09:21;24.75;;;8.55;;
29416;SDS011;28421;51.030;4.006;2023-02-01T00:11:47;27.25;;;8.20;;
29416;SDS011;28421;51.030;4.006;2023-02-01T00:14:12;24.88;;;6.90;;
29416;SDS011;28421;51.030;4.006;2023-02-01T00:16:38;36.20;;;8.27;;
29416;SDS011;28421;51.030;4.006;2023-02-01T00:19:05;29.17;;;7.78;;
29416;SDS011;28421;51.030;4.006;2023-02-01T00:21:32;30.73;;;8.32;;
29416;SDS011;28421;51.030;4.006;2023-02-01T00:23:58;27.70;;;6.90;;
29416;SDS011;28421;51.030;4.006;2023-02-01T00:26:34;29.45;;;6.82;;
29416;SDS011;28421;51.030;4.006;2023-02-01T00:29:03;21.92;;;6.22;;
29416;SDS011;28421;51.030;4.006;2023-02-01T00:31:31;26.73;;;6.65;;
29416;SDS011;28421;51.030;4.006;2023-02-01T05:33:58;35.35;;;6.55;;
29416;SDS011;28421;51.030;4.006;2023-02-01T05:36:49;26.85;;;5.00;;
29416;SDS011;28421;51.030;4.006;2023-02-01T05:39:14;20.20;;;5.05;;
29416;SDS011;28421;51.030;4.006;2023-02-01T05:41:40;26.88;;;5.60;;
29416;SDS011;28421;51.030;4.006;2023-02-01T05:44:05;21.15;;;6.43;;
29416;SDS011;28421;51.030;4.006;2023-02-01T05:46:32;15.85;;;5.40;;
29416;SDS011;28421;51.030;4.006;2023-02-01T05:48:59;19.65;;;4.75;;
29416;SDS011;28421;51.030;4.006;2023-02-01T05:51:24;25.33;;;5.50;;
29416;SDS011;28421;51.030;4.006;2023-02-01T05:53:50;23.30;;;4.88;;
29416;SDS011;28421;51.030;4.006;2023-02-01T05:56:15;22.83;;;4.55;;
29416;SDS011;28421;51.030;4.006;2023-02-01T05:58:40;28.77;;;4.80;;
29416;SDS011;28421;51.030;4.006;2023-02-01T06:01:06;16.05;;;3.95;;
29416;SDS011;28421;51.030;4.006;2023-02-01T06:03:31;16.60;;;4.25;;
29416;SDS011;28421;51.030;4.006;2023-02-01T06:05:57;23.52;;;3.83;;
29416;SDS011;28421;51.030;4.006;2023-02-01T06:08:22;26.65;;;5.35;;
29416;SDS011;28421;51.030;4.006;2023-02-01T06:10:50;20.85;;;5.03;;
29416;SDS011;28421;51.030;4.006;2023-02-01T06:13:16;14.23;;;4.55;;
29416;SDS011;28421;51.030;4.006;2023-02-01T06:15:42;38.20;;;5.55;;
29416;SDS011;28421;51.030;4.006;2023-02-01T06:18:09;26.05;;;4.53;;
29416;SDS011;28421;51.030;4.006;2023-02-01T06:20:34;17.65;;;3.42;;
29416;SDS011;28421;51.030;4.006;2023-02-01T06:23:00;16.80;;;5.25;;
29416;SDS011;28421;51.030;4.006;2023-02-01T06:25:25;18.23;;;4.10;;
29416;SDS011;28421;51.030;4.006;2023-02-01T06:27:51;22.33;;;6.07;;
29416;SDS011;28421;51.030;4.006;2023-02-01T06:30:16;23.98;;;6.05;;
29416;SDS011;28421;51.030;4.006;2023-02-01T06:32:43;16.17;;;4.13;;
29416;SDS011;28421;51.030;4.006;2023-02-01T06:35:09;26.95;;;5.50;;
29416;SDS011;28421;51.030;4.006;2023-02-01T06:37:40;14.55;;;5.13;;
29416;SDS011;28421;51.030;4.006;2023-02-01T06:40:07;27.02;;;5.78;;
29416;SDS011;28421;51.030;4.006;2023-02-01T06:42:33;19.67;;;5.45;;
29416;SDS011;28421;51.030;4.006;2023-02-01T06:44:59;23.73;;;5.35;;
29416;SDS011;28421;51.030;4.006;2023-02-01T06:47:25;27.42;;;6.60;;
29416;SDS011;28421;51.030;4.006;2023-02-01T06:49:50;20.20;;;4.78;;
29416;SDS011;28421;51.030;4.006;2023-02-01T06:52:15;25.05;;;5.10;;
29416;SDS011;28421;51.030;4.006;2023-02-01T06:54:41;24.55;;;5.50;;
29416;SDS011;28421;51.030;4.006;2023-02-01T06:57:06;28.95;;;5.68;;
29416;SDS011;28421;51.030;4.006;2023-02-01T06:59:32;19.63;;;5.45;;
29416;SDS011;28421;51.030;4.006;2023-02-01T07:01:57;22.15;;;5.32;;
29416;SDS011;28421;51.030;4.006;2023-02-01T07:04:22;21.05;;;5.60;;
29416;SDS011;28421;51.030;4.006;2023-02-01T07:06:48;24.98;;;5.53;;
29416;SDS011;28421;51.030;4.006;2023-02-01T07:09:13;17.80;;;3.97;;
29416;SDS011;28421;51.030;4.006;2023-02-01T07:11:39;34.08;;;5.85;;
29416;SDS011;28421;51.030;4.006;2023-02-01T07:14:12;25.73;;;5.25;;
29416;SDS011;28421;51.030;4.006;2023-02-01T07:16:37;19.42;;;5.40;;
29416;SDS011;28421;51.030;4.006;2023-02-01T07:19:03;21.55;;;4.85;;
29416;SDS011;28421;51.030;4.006;2023-02-01T07:21:28;22.80;;;5.93;;
29416;SDS011;28421;51.030;4.006;2023-02-01T07:23:54;19.80;;;4.25;;
29416;SDS011;28421;51.030;4.006;2023-02-01T07:26:20;26.98;;;4.32;;
29416;SDS011;28421;51.030;4.006;2023-02-01T07:28:45;24.65;;;4.95;;
29416;SDS011;28421;51.030;4.006;2023-02-01T07:31:16;18.55;;;4.57;;
29416;SDS011;28421;51.030;4.006;2023-02-01T07:33:47;21.63;;;5.43;;
29416;SDS011;28421;51.030;4.006;2023-02-01T07:36:14;17.35;;;5.28;;
29416;SDS011;28421;51.030;4.006;2023-02-01T07:38:41;16.25;;;4.68;;
29416;SDS011;28421;51.030;4.006;2023-02-01T07:41:07;34.78;;;6.18;;
29416;SDS011;28421;51.030;4.006;2023-02-01T07:43:33;13.18;;;4.63;;
29416;SDS011;28421;51.030;4.006;2023-02-01T07:45:59;22.60;;;5.78;;
29416;SDS011;28421;51.030;4.006;2023-02-01T07:48:25;27.35;;;4.90;;
29416;SDS011;28421;51.030;4.006;2023-02-01T07:51:04;11.15;;;4.15;;
29416;SDS011;28421;51.030;4.006;2023-02-01T07:53:31;27.80;;;5.28;;
29416;SDS011;28421;51.030;4.006;2023-02-01T07:55:58;26.02;;;5.20;;
29416;SDS011;28421;51.030;4.006;2023-02-01T07:58:24;20.52;;;5.07;;
29416;SDS011;28421;51.030;4.006;2023-02-01T08:00:50;23.38;;;5.55;;
29416;SDS011;28421;51.030;4.006;2023-02-01T08:03:34;28.00;;;6.77;;
29416;SDS011;28421;51.030;4.006;2023-02-01T08:06:00;38.97;;;6.03;;
29416;SDS011;28421;51.030;4.006;2023-02-01T08:08:25;28.60;;;7.20;;
29416;SDS011;28421;51.030;4.006;2023-02-01T08:10:50;23.40;;;5.22;;
29416;SDS011;28421;51.030;4.006;2023-02-01T08:13:16;16.83;;;4.85;;
29416;SDS011;28421;51.030;4.006;2023-02-01T08:15:41;20.52;;;4.72;;
29416;SDS011;28421;51.030;4.006;2023-02-01T08:18:07;21.17;;;6.70;;
29416;SDS011;28421;51.030;4.006;2023-02-01T08:20:34;30.73;;;6.72;;
29416;SDS011;28421;51.030;4.006;2023-02-01T08:23:01;28.27;;;7.57;;
29416;SDS011;28421;51.030;4.006;2023-02-01T08:25:26;28.27;;;5.70;;
29416;SDS011;28421;51.030;4.006;2023-02-01T08:27:52;23.00;;;5.78;;
29416;SDS011;28421;51.030;4.006;2023-02-01T08:30:19;25.48;;;5.45;;
29416;SDS011;28421;51.030;4.006;2023-02-01T08:32:45;28.65;;;5.57;;
29416;SDS011;28421;51.030;4.006;2023-02-01T08:35:11;18.88;;;5.50;;
29416;SDS011;28421;51.030;4.006;2023-02-01T08:37:36;35.75;;;6.57;;
29416;SDS011;28421;51.030;4.006;2023-02-01T08:40:03;27.67;;;5.68;;
29416;SDS011;28421;51.030;4.006;2023-02-01T08:42:29;26.30;;;7.00;;
29416;SDS011;28421;51.030;4.006;2023-02-01T08:45:13;21.43;;;5.13;;
29416;SDS011;28421;51.030;4.006;2023-02-01T08:47:38;19.50;;;5.65;;
29416;SDS011;28421;51.030;4.006;2023-02-01T08:50:04;20.23;;;5.47;;
29416;SDS011;28421;51.030;4.006;2023-02-01T08:52:30;23.38;;;6.03;;
29416;SDS011;28421;51.030;4.006;2023-02-01T08:54:55;40.70;;;6.28;;
29416;SDS011;28421;51.030;4.006;2023-02-01T08:57:21;12.52;;;3.63;;
29416;SDS011;28421;51.030;4.006;2023-02-01T08:59:46;15.50;;;4.82;;
29416;SDS011;28421;51.030;4.006;2023-02-01T09:02:16;20.10;;;4.50;;
29416;SDS011;28421;51.030;4.006;2023-02-01T09:04:42;25.38;;;4.13;;
29416;SDS011;28421;51.030;4.006;2023-02-01T09:07:10;21.58;;;4.75;;
29416;SDS011;28421;51.030;4.006;2023-02-01T09:09:36;17.38;;;4.70;;
29416;SDS011;28421;51.030;4.006;2023-02-01T09:12:02;22.13;;;5.28;;
29416;SDS011;28421;51.030;4.006;2023-02-01T09:14:28;14.50;;;4.13;;
29416;SDS011;28421;51.030;4.006;2023-02-01T09:16:54;19.27;;;3.67;;
29416;SDS011;28421;51.030;4.006;2023-02-01T09:19:19;15.60;;;4.30;;
29416;SDS011;28421;51.030;4.006;2023-02-01T09:21:45;21.55;;;5.38;;
29416;SDS011;28421;51.030;4.006;2023-02-01T09:24:11;29.42;;;7.15;;
29416;SDS011;28421;51.030;4.006;2023-02-01T09:26:36;24.85;;;4.45;;
29416;SDS011;28421;51.030;4.006;2023-02-01T09:29:02;20.05;;;5.25;;
29416;SDS011;28421;51.030;4.006;2023-02-01T09:31:28;30.83;;;5.45;;
29416;SDS011;28421;51.030;4.006;2023-02-01T09:33:55;28.33;;;4.70;;
29416;SDS011;28421;51.030;4.006;2023-02-01T09:36:21;14.90;;;4.25;;
29416;SDS011;28421;51.030;4.006;2023-02-01T09:38:48;13.68;;;4.00;;
29416;SDS011;28421;51.030;4.006;2023-02-01T09:43:48;17.98;;;4.45;;
29416;SDS011;28421;51.030;4.006;2023-02-01T09:46:32;18.90;;;3.85;;
29416;SDS011;28421;51.030;4.006;2023-02-01T09:49:43;11.05;;;3.30;;
29416;SDS011;28421;51.030;4.006;2023-02-01T09:51:51;31.98;;;4.93;;
29416;SDS011;28421;51.030;4.006;2023-02-01T09:54:18;20.63;;;3.92;;
29416;SDS011;28421;51.030;4.006;2023-02-01T09:57:01;17.27;;;3.22;;
29416;SDS011;28421;51.030;4.006;2023-02-01T09:59:43;13.48;;;4.05;;
29416;SDS011;28421;51.030;4.006;2023-02-01T10:02:19;19.35;;;4.05;;
29416;SDS011;28421;51.030;4.006;2023-02-01T10:04:48;19.27;;;4.10;;
29416;SDS011;28421;51.030;4.006;2023-02-01T10:10:05;23.38;;;5.20;;
29416;SDS011;28421;51.030;4.006;2023-02-01T10:12:57;25.13;;;4.65;;
29416;SDS011;28421;51.030;4.006;2023-02-01T10:15:49;27.48;;;5.05;;
29416;SDS011;28421;51.030;4.006;2023-02-01T10:18:42;27.90;;;4.78;;
29416;SDS011;28421;51.030;4.006;2023-02-01T10:24:13;20.17;;;4.40;;
29416;SDS011;28421;51.030;4.006;2023-02-01T10:27:21;20.33;;;4.43;;
29416;SDS011;28421;51.030;4.006;2023-02-01T10:29:43;22.50;;;3.88;;
29416;SDS011;28421;51.030;4.006;2023-02-01T10:32:14;20.00;;;4.00;;
29416;SDS011;28421;51.030;4.006;2023-02-01T10:34:42;21.55;;;3.30;;
29416;SDS011;28421;51.030;4.006;2023-02-01T10:37:17;20.83;;;4.20;;
29416;SDS011;28421;51.030;4.006;2023-02-01T10:39:48;19.75;;;4.43;;
29416;SDS011;28421;51.030;4.006;2023-02-01T10:42:15;24.20;;;3.92;;
29416;SDS011;28421;51.030;4.006;2023-02-01T10:44:44;16.35;;;4.15;;
29416;SDS011;28421;51.030;4.006;2023-02-01T10:47:13;19.23;;;4.15;;
29416;SDS011;28421;51.030;4.006;2023-02-01T10:49:41;22.92;;;3.85;;
29416;SDS011;28421;51.030;4.006;2023-02-01T10:52:58;18.52;;;5.40;;
29416;SDS011;28421;51.030;4.006;2023-02-01T10:57:58;29.65;;;4.75;;
29416;SDS011;28421;51.030;4.006;2023-02-01T11:00:26;16.90;;;3.20;;
29416;SDS011;28421;51.030;4.006;2023-02-01T11:02:52;17.05;;;3.17;;
29416;SDS011;28421;51.030;4.006;2023-02-01T11:05:19;21.05;;;3.97;;
29416;SDS011;28421;51.030;4.006;2023-02-01T11:07:51;9.98;;;3.50;;
29416;SDS011;28421;51.030;4.006;2023-02-01T11:11:25;18.77;;;3.63;;
29416;SDS011;28421;51.030;4.006;2023-02-01T11:13:30;12.02;;;3.60;;
29416;SDS011;28421;51.030;4.006;2023-02-01T11:15:58;14.05;;;3.67;;
29416;SDS011;28421;51.030;4.006;2023-02-01T11:18:27;18.45;;;3.67;;
29416;SDS011;28421;51.030;4.006;2023-02-01T11:20:54;22.25;;;4.45;;
29416;SDS011;28421;51.030;4.006;2023-02-01T11:23:24;12.57;;;3.28;;
29416;SDS011;28421;51.030;4.006;2023-02-01T11:28:33;20.42;;;4.18;;
29416;SDS011;28421;51.030;4.006;2023-02-01T11:31:03;20.70;;;3.40;;
29416;SDS011;28421;51.030;4.006;2023-02-01T11:33:33;28.48;;;4.13;;
29416;SDS011;28421;51.030;4.006;2023-02-01T11:36:08;11.73;;;2.85;;
29416;SDS011;28421;51.030;4.006;2023-02-01T11:38:39;17.75;;;3.28;;
29416;SDS011;28421;51.030;4.006;2023-02-01T11:41:11;15.15;;;3.38;;
29416;SDS011;28421;51.030;4.006;2023-02-01T11:43:51;13.68;;;3.17;;
29416;SDS011;28421;51.030;4.006;2023-02-01T11:46:26;18.23;;;3.17;;
29416;SDS011;28421;51.030;4.006;2023-02-01T11:48:54;12.10;;;2.90;;
29416;SDS011;28421;51.030;4.006;2023-02-01T11:51:37;18.10;;;3.00;;
29416;SDS011;28421;51.030;4.006;2023-02-01T11:59:38;17.45;;;3.15;;
29416;SDS011;28421;51.030;4.006;2023-02-01T12:02:28;14.40;;;3.90;;
29416;SDS011;28421;51.030;4.006;2023-02-01T12:05:33;13.20;;;2.33;;
29416;SDS011;28421;51.030;4.006;2023-02-01T12:08:08;14.48;;;3.75;;
29416;SDS011;28421;51.030;4.006;2023-02-01T12:24:07;12.88;;;2.88;;
29416;SDS011;28421;51.030;4.006;2023-02-01T12:29:22;13.60;;;2.92;;
29416;SDS011;28421;51.030;4.006;2023-02-01T12:32:25;20.73;;;3.05;;
29416;SDS011;28421;51.030;4.006;2023-02-01T12:41:03;16.65;;;3.28;;
29416;SDS011;28421;51.030;4.006;2023-02-01T12:44:16;18.88;;;2.92;;
29416;SDS011;28421;51.030;4.006;2023-02-01T12:46:31;14.85;;;2.65;;
29416;SDS011;28421;51.030;4.006;2023-02-01T12:49:06;11.90;;;3.10;;
29416;SDS011;28421;51.030;4.006;2023-02-01T12:51:39;11.00;;;2.83;;
29416;SDS011;28421;51.030;4.006;2023-02-01T12:59:28;16.17;;;3.28;;
29416;SDS011;28421;51.030;4.006;2023-02-01T13:05:17;16.45;;;2.90;;
29416;SDS011;28421;51.030;4.006;2023-02-01T13:07:58;17.20;;;4.15;;
29416;SDS011;28421;51.030;4.006;2023-02-01T13:10:35;15.63;;;2.92;;
29416;SDS011;28421;51.030;4.006;2023-02-01T13:18:32;14.23;;;2.25;;
29416;SDS011;28421;51.030;4.006;2023-02-01T13:21:12;7.63;;;2.08;;
29416;SDS011;28421;51.030;4.006;2023-02-01T13:23:42;17.75;;;3.17;;
29416;SDS011;28421;51.030;4.006;2023-02-01T13:26:11;10.85;;;2.20;;
29416;SDS011;28421;51.030;4.006;2023-02-01T13:33:52;24.08;;;2.75;;
29416;SDS011;28421;51.030;4.006;2023-02-01T13:42:46;13.30;;;3.20;;
29416;SDS011;28421;51.030;4.006;2023-02-01T13:45:17;19.00;;;2.17;;
29416;SDS011;28421;51.030;4.006;2023-02-01T13:47:46;13.75;;;2.53;;
29416;SDS011;28421;51.030;4.006;2023-02-01T13:53:00;10.20;;;2.53;;
29416;SDS011;28421;51.030;4.006;2023-02-01T13:55:36;14.32;;;3.05;;
29416;SDS011;28421;51.030;4.006;2023-02-01T14:00:36;13.75;;;3.13;;
29416;SDS011;28421;51.030;4.006;2023-02-01T14:10:47;7.38;;;2.65;;
29416;SDS011;28421;51.030;4.006;2023-02-01T14:26:19;17.02;;;2.80;;
29416;SDS011;28421;51.030;4.006;2023-02-01T14:34:33;26.02;;;3.22;;
29416;SDS011;28421;51.030;4.006;2023-02-01T14:37:33;8.90;;;2.92;;
29416;SDS011;28421;51.030;4.006;2023-02-01T14:40:03;35.08;;;5.63;;
29416;SDS011;28421;51.030;4.006;2023-02-01T14:47:54;11.00;;;2.75;;
29416;SDS011;28421;51.030;4.006;2023-02-01T14:58:14;17.02;;;3.28;;
29416;SDS011;28421;51.030;4.006;2023-02-01T15:00:54;16.40;;;3.78;;
29416;SDS011;28421;51.030;4.006;2023-02-01T15:06:13;15.10;;;4.10;;
29416;SDS011;28421;51.030;4.006;2023-02-01T15:08:48;18.23;;;3.65;;
29416;SDS011;28421;51.030;4.006;2023-02-01T15:11:14;13.48;;;3.63;;
29416;SDS011;28421;51.030;4.006;2023-02-01T15:13:47;9.48;;;2.92;;
29416;SDS011;28421;51.030;4.006;2023-02-01T15:16:15;14.38;;;3.58;;
29416;SDS011;28421;51.030;4.006;2023-02-01T15:18:42;15.73;;;3.33;;
29416;SDS011;28421;51.030;4.006;2023-02-01T15:21:18;10.13;;;3.45;;
29416;SDS011;28421;51.030;4.006;2023-02-01T15:23:45;26.30;;;5.75;;
29416;SDS011;28421;51.030;4.006;2023-02-01T15:26:29;21.10;;;4.35;;
29416;SDS011;28421;51.030;4.006;2023-02-01T15:28:57;14.98;;;2.53;;
29416;SDS011;28421;51.030;4.006;2023-02-01T15:31:36;27.90;;;3.35;;
29416;SDS011;28421;51.030;4.006;2023-02-01T15:34:04;22.10;;;3.92;;
29416;SDS011;28421;51.030;4.006;2023-02-01T15:36:30;19.13;;;4.25;;
29416;SDS011;28421;51.030;4.006;2023-02-01T15:39:17;12.77;;;2.60;;
29416;SDS011;28421;51.030;4.006;2023-02-01T15:41:56;18.27;;;4.13;;
29416;SDS011;28421;51.030;4.006;2023-02-01T15:44:38;28.35;;;3.40;;
29416;SDS011;28421;51.030;4.006;2023-02-01T15:47:10;24.98;;;3.90;;
29416;SDS011;28421;51.030;4.006;2023-02-01T15:49:41;19.50;;;3.53;;
29416;SDS011;28421;51.030;4.006;2023-02-01T15:54:55;15.90;;;4.32;;
29416;SDS011;28421;51.030;4.006;2023-02-01T15:57:29;10.15;;;3.10;;
29416;SDS011;28421;51.030;4.006;2023-02-01T15:59:59;20.00;;;4.63;;
29416;SDS011;28421;51.030;4.006;2023-02-01T16:02:44;15.02;;;2.97;;
29416;SDS011;28421;51.030;4.006;2023-02-01T16:05:34;12.35;;;3.47;;
29416;SDS011;28421;51.030;4.006;2023-02-01T16:08:10;21.30;;;4.35;;
29416;SDS011;28421;51.030;4.006;2023-02-01T16:10:44;7.00;;;2.88;;
29416;SDS011;28421;51.030;4.006;2023-02-01T16:13:11;20.45;;;3.63;;
29416;SDS011;28421;51.030;4.006;2023-02-01T16:15:37;13.23;;;3.60;;
29416;SDS011;28421;51.030;4.006;2023-02-01T16:18:03;14.35;;;3.67;;
29416;SDS011;28421;51.030;4.006;2023-02-01T16:20:29;11.60;;;2.80;;
29416;SDS011;28421;51.030;4.006;2023-02-01T16:22:55;22.98;;;3.70;;
29416;SDS011;28421;51.030;4.006;2023-02-01T16:25:20;14.32;;;3.70;;
29416;SDS011;28421;51.030;4.006;2023-02-01T16:27:46;22.92;;;4.32;;
29416;SDS011;28421;51.030;4.006;2023-02-01T16:30:11;16.17;;;3.60;;
29416;SDS011;28421;51.030;4.006;2023-02-01T16:32:37;30.05;;;4.88;;
29416;SDS011;28421;51.030;4.006;2023-02-01T16:35:19;18.90;;;4.60;;
29416;SDS011;28421;51.030;4.006;2023-02-01T16:37:48;26.77;;;4.20;;
29416;SDS011;28421;51.030;4.006;2023-02-01T16:40:14;18.33;;;3.58;;
29416;SDS011;28421;51.030;4.006;2023-02-01T16:42:41;22.60;;;4.88;;
29416;SDS011;28421;51.030;4.006;2023-02-01T16:45:08;22.02;;;5.25;;
29416;SDS011;28421;51.030;4.006;2023-02-01T16:47:34;21.67;;;4.90;;
29416;SDS011;28421;51.030;4.006;2023-02-01T16:50:02;12.85;;;4.05;;
29416;SDS011;28421;51.030;4.006;2023-02-01T16:52:28;11.98;;;3.92;;
29416;SDS011;28421;51.030;4.006;2023-02-01T16:54:54;21.23;;;3.45;;
29416;SDS011;28421;51.030;4.006;2023-02-01T16:57:19;28.58;;;4.38;;
29416;SDS011;28421;51.030;4.006;2023-02-01T16:59:49;25.45;;;5.65;;
29416;SDS011;28421;51.030;4.006;2023-02-01T17:02:18;26.77;;;5.18;;
29416;SDS011;28421;51.030;4.006;2023-02-01T17:04:47;17.42;;;3.70;;
29416;SDS011;28421;51.030;4.006;2023-02-01T17:07:14;26.20;;;4.30;;
29416;SDS011;28421;51.030;4.006;2023-02-01T17:09:44;20.38;;;5.82;;
29416;SDS011;28421;51.030;4.006;2023-02-01T17:12:27;20.33;;;4.22;;
29416;SDS011;28421;51.030;4.006;2023-02-01T17:14:55;21.25;;;4.07;;
29416;SDS011;28421;51.030;4.006;2023-02-01T17:17:21;16.42;;;4.32;;
29416;SDS011;28421;51.030;4.006;2023-02-01T17:19:49;23.23;;;4.80;;
29416;SDS011;28421;51.030;4.006;2023-02-01T17:22:19;23.10;;;4.95;;
29416;SDS011;28421;51.030;4.006;2023-02-01T17:24:45;26.10;;;5.45;;
29416;SDS011;28421;51.030;4.006;2023-02-01T17:27:10;17.15;;;4.22;;
29416;SDS011;28421;51.030;4.006;2023-02-01T17:29:36;21.13;;;4.72;;
29416;SDS011;28421;51.030;4.006;2023-02-01T17:32:01;15.70;;;3.67;;
29416;SDS011;28421;51.030;4.006;2023-02-01T17:34:28;17.23;;;3.70;;
29416;SDS011;28421;51.030;4.006;2023-02-01T17:36:53;14.15;;;4.20;;
29416;SDS011;28421;51.030;4.006;2023-02-01T17:39:19;22.95;;;4.72;;
29416;SDS011;28421;51.030;4.006;2023-02-01T17:42:03;26.00;;;4.60;;
29416;SDS011;28421;51.030;4.006;2023-02-01T17:44:30;12.68;;;3.83;;
29416;SDS011;28421;51.030;4.006;2023-02-01T17:46:56;15.65;;;4.13;;
29416;SDS011;28421;51.030;4.006;2023-02-01T17:49:23;17.88;;;4.18;;
29416;SDS011;28421;51.030;4.006;2023-02-01T17:51:49;22.65;;;4.25;;
29416;SDS011;28421;51.030;4.006;2023-02-01T17:54:15;22.33;;;5.75;;
29416;SDS011;28421;51.030;4.006;2023-02-01T17:56:42;37.35;;;5.45;;
29416;SDS011;28421;51.030;4.006;2023-02-01T17:59:08;18.30;;;4.18;;
29416;SDS011;28421;51.030;4.006;2023-02-01T18:01:34;25.05;;;5.55;;
29416;SDS011;28421;51.030;4.006;2023-02-01T18:03:59;14.93;;;3.58;;
29416;SDS011;28421;51.030;4.006;2023-02-01T18:06:25;35.53;;;5.93;;
29416;SDS011;28421;51.030;4.006;2023-02-01T18:08:51;19.75;;;5.03;;
29416;SDS011;28421;51.030;4.006;2023-02-01T18:11:18;21.30;;;4.53;;
29416;SDS011;28421;51.030;4.006;2023-02-01T18:13:46;19.15;;;4.47;;
29416;SDS011;28421;51.030;4.006;2023-02-01T18:18:52;35.08;;;5.70;;
29416;SDS011;28421;51.030;4.006;2023-02-01T18:21:21;13.52;;;3.80;;
29416;SDS011;28421;51.030;4.006;2023-02-01T18:24:01;19.70;;;4.72;;
29416;SDS011;28421;51.030;4.006;2023-02-01T18:29:54;25.60;;;4.35;;
29416;SDS011;28421;51.030;4.006;2023-02-01T18:32:21;21.67;;;4.13;;
29416;SDS011;28421;51.030;4.006;2023-02-01T18:38:07;21.67;;;4.13;;
29416;SDS011;28421;51.030;4.006;2023-02-01T18:40:42;20.58;;;5.95;;
29416;SDS011;28421;51.030;4.006;2023-02-01T18:43:31;26.60;;;5.72;;
29416;SDS011;28421;51.030;4.006;2023-02-01T18:45:57;28.33;;;5.57;;
29416;SDS011;28421;51.030;4.006;2023-02-01T19:02:43;25.63;;;5.65;;
29416;SDS011;28421;51.030;4.006;2023-02-01T19:06:08;24.77;;;5.67;;
29416;SDS011;28421;51.030;4.006;2023-02-01T19:12:20;31.77;;;5.70;;
29416;SDS011;28421;51.030;4.006;2023-02-01T19:15:05;11.60;;;4.05;;
29416;SDS011;28421;51.030;4.006;2023-02-01T19:18:02;20.45;;;4.55;;
29416;SDS011;28421;51.030;4.006;2023-02-01T19:20:30;28.08;;;6.47;;
29416;SDS011;28421;51.030;4.006;2023-02-01T19:22:55;29.75;;;5.35;;
29416;SDS011;28421;51.030;4.006;2023-02-01T19:25:25;15.00;;;4.68;;
29416;SDS011;28421;51.030;4.006;2023-02-01T19:27:54;19.70;;;4.75;;
29416;SDS011;28421;51.030;4.006;2023-02-01T19:30:20;17.42;;;4.70;;
29416;SDS011;28421;51.030;4.006;2023-02-01T19:33:23;15.32;;;4.75;;
29416;SDS011;28421;51.030;4.006;2023-02-01T19:37:04;15.93;;;4.07;;
29416;SDS011;28421;51.030;4.006;2023-02-01T19:54:32;20.85;;;5.07;;
29416;SDS011;28421;51.030;4.006;2023-02-01T19:56:57;20.67;;;4.43;;
29416;SDS011;28421;51.030;4.006;2023-02-01T20:00:04;25.23;;;5.10;;
29416;SDS011;28421;51.030;4.006;2023-02-01T20:02:30;21.88;;;4.35;;
29416;SDS011;28421;51.030;4.006;2023-02-01T20:05:27;24.70;;;5.63;;
29416;SDS011;28421;51.030;4.006;2023-02-01T20:08:05;31.80;;;5.35;;
29416;SDS011;28421;51.030;4.006;2023-02-01T20:18:24;24.00;;;5.32;;
29416;SDS011;28421;51.030;4.006;2023-02-01T20:24:26;32.20;;;5.80;;
29416;SDS011;28421;51.030;4.006;2023-02-01T20:27:21;31.05;;;5.53;;
29416;SDS011;28421;51.030;4.006;2023-02-01T20:43:57;21.83;;;4.70;;
29416;SDS011;28421;51.030;4.006;2023-02-01T20:46:44;26.88;;;5.28;;
29416;SDS011;28421;51.030;4.006;2023-02-01T20:54:09;25.40;;;5.05;;
29416;SDS011;28421;51.030;4.006;2023-02-01T21:01:18;29.15;;;5.20;;
29416;SDS011;28421;51.030;4.006;2023-02-01T21:04:52;20.33;;;5.22;;
29416;SDS011;28421;51.030;4.006;2023-02-01T21:07:41;33.67;;;6.05;;
29416;SDS011;28421;51.030;4.006;2023-02-01T21:11:04;22.55;;;5.07;;
29416;SDS011;28421;51.030;4.006;2023-02-01T21:17:19;23.95;;;5.18;;
29416;SDS011;28421;51.030;4.006;2023-02-01T21:19:45;22.48;;;5.25;;
29416;SDS011;28421;51.030;4.006;2023-02-01T21:22:11;21.10;;;5.63;;
29416;SDS011;28421;51.030;4.006;2023-02-01T21:28:26;26.17;;;4.22;;
29416;SDS011;28421;51.030;4.006;2023-02-01T21:32:09;16.70;;;4.28;;
29416;SDS011;28421;51.030;4.006;2023-02-01T21:34:34;20.48;;;4.88;;
29416;SDS011;28421;51.030;4.006;2023-02-01T21:37:00;17.50;;;4.40;;
29416;SDS011;28421;51.030;4.006;2023-02-01T21:47:00;16.73;;;4.85;;
29416;SDS011;28421;51.030;4.006;2023-02-01T21:49:26;21.77;;;5.18;;
29416;SDS011;28421;51.030;4.006;2023-02-01T21:51:53;15.27;;;4.72;;
29416;SDS011;28421;51.030;4.006;2023-02-01T21:54:19;17.80;;;4.07;;
29416;SDS011;28421;51.030;4.006;2023-02-01T21:56:44;32.35;;;5.68;;
29416;SDS011;28421;51.030;4.006;2023-02-01T21:59:10;28.50;;;4.75;;
29416;SDS011;28421;51.030;4.006;2023-02-01T22:01:36;22.25;;;4.75;;
29416;SDS011;28421;51.030;4.006;2023-02-01T22:04:03;21.80;;;5.78;;
29416;SDS011;28421;51.030;4.006;2023-02-01T22:06:33;20.83;;;4.63;;
29416;SDS011;28421;51.030;4.006;2023-02-01T22:09:00;27.30;;;4.57;;
29416;SDS011;28421;51.030;4.006;2023-02-01T22:11:26;20.75;;;4.53;;
29416;SDS011;28421;51.030;4.006;2023-02-01T22:13:51;17.67;;;4.65;;
29416;SDS011;28421;51.030;4.006;2023-02-01T22:16:17;25.40;;;4.50;;
29416;SDS011;28421;51.030;4.006;2023-02-01T22:18:49;16.98;;;4.05;;
29416;SDS011;28421;51.030;4.006;2023-02-01T22:21:16;15.25;;;4.10;;
29416;SDS011;28421;51.030;4.006;2023-02-01T22:23:42;13.77;;;4.40;;
29416;SDS011;28421;51.030;4.006;2023-02-01T22:26:08;31.20;;;6.40;;
29416;SDS011;28421;51.030;4.006;2023-02-01T22:28:36;21.52;;;4.35;;
29416;SDS011;28421;51.030;4.006;2023-02-01T22:31:03;24.92;;;5.38;;
29416;SDS011;28421;51.030;4.006;2023-02-01T22:33:29;26.08;;;4.25;;
29416;SDS011;28421;51.030;4.006;2023-02-01T22:35:55;14.52;;;4.68;;
29416;SDS011;28421;51.030;4.006;2023-02-01T22:38:21;20.08;;;5.07;;
29416;SDS011;28421;51.030;4.006;2023-02-01T22:40:53;21.08;;;4.10;;
29416;SDS011;28421;51.030;4.006;2023-02-01T22:43:20;21.05;;;4.40;;
29416;SDS011;28421;51.030;4.006;2023-02-01T22:45:45;16.25;;;4.80;;
29416;SDS011;28421;51.030;4.006;2023-02-01T22:48:11;31.17;;;4.65;;
29416;SDS011;28421;51.030;4.006;2023-02-01T22:50:36;21.30;;;4.60;;
29416;SDS011;28421;51.030;4.006;2023-02-01T22:53:01;30.55;;;4.47;;
29416;SDS011;28421;51.030;4.006;2023-02-01T22:55:31;23.25;;;4.85;;
29416;SDS011;28421;51.030;4.006;2023-02-01T22:58:00;17.08;;;4.28;;
29416;SDS011;28421;51.030;4.006;2023-02-01T23:00:26;30.38;;;5.05;;
29416;SDS011;28421;51.030;4.006;2023-02-01T23:02:52;18.63;;;4.45;;
29416;SDS011;28421;51.030;4.006;2023-02-01T23:05:18;28.02;;;4.32;;
29416;SDS011;28421;51.030;4.006;2023-02-01T23:07:49;16.30;;;4.50;;
29416;SDS011;28421;51.030;4.006;2023-02-01T23:10:16;27.17;;;5.55;;
29416;SDS011;28421;51.030;4.006;2023-02-01T23:12:43;21.90;;;4.80;;
29416;SDS011;28421;51.030;4.006;2023-02-01T23:15:09;12.77;;;4.22;;
29416;SDS011;28421;51.030;4.006;2023-02-01T23:17:36;23.02;;;3.97;;
29416;SDS011;28421;51.030;4.006;2023-02-01T23:20:06;23.77;;;4.88;;
29416;SDS011;28421;51.030;4.006;2023-02-01T23:22:35;24.20;;;5.45;;
29416;SDS011;28421;51.030;4.006;2023-02-01T23:25:00;23.15;;;4.90;;
29416;SDS011;28421;51.030;4.006;2023-02-01T23:27:25;30.55;;;4.65;;
29416;SDS011;28421;51.030;4.006;2023-02-01T23:29:51;15.32;;;4.47;;